^^
Datos históricos de la estación: Murcia-Puente Tocinos
Diario Informe para Octubre 17, 2021 Unidades:  Métrico    Ingés   Ambas
Diario Semanal Mensual Anual
  Máxima: Mínima: Promedio:
Temperatura: 26.7 °C 18.8 °C 21.5 °C
Punto de rocio: 18 °C 14.5 °C 16.7 °C
Humedad: 89% 49.3% 75%
Velocidad viento: 12.2km/h 0km/h 5.5km/h
Racha viento: 20.9km/h - -
Viento- - SSE
Presión: 1019.9 hPa 1015.3 hPa -
Precipitación: 0.0 mm    
 
 
Tabla de datos para Octubre 17, 2021
Hora Temperatura Punto de rocio Presión Viento Velocidad viento Racha viento Humedad Intensidad lluvia(por hora) Nubes
00:04 20.6 °C 16.2 °C 1015.9 hPa NNE 8.4 km/h 11.9 km/h 76.1% 0.0 mm
00:09 20.6 °C 16.2 °C 1016.0 hPa NNE 7.9 km/h 11.1 km/h 76% 0.0 mm
00:14 20.6 °C 16.2 °C 1016.0 hPa NE 6.9 km/h 11.1 km/h 76% 0.0 mm
00:19 20.6 °C 16.4 °C 1016.0 hPa NNE 6.9 km/h 9.5 km/h 76.7% 0.0 mm
00:24 20.6 °C 16.4 °C 1016.0 hPa NE 6.9 km/h 11.1 km/h 77% 0.0 mm
00:29 20.6 °C 16.4 °C 1016.0 hPa NE 6.7 km/h 10 km/h 77% 0.0 mm
00:34 20.5 °C 16.4 °C 1016.0 hPa North 6.4 km/h 9.5 km/h 77.2% 0.0 mm
00:39 20.5 °C 16.6 °C 1016.3 hPa ONO 5.9 km/h 7.4 km/h 78% 0.0 mm
00:44 20.5 °C 16.6 °C 1016.3 hPa North 5 km/h 7.4 km/h 78% 0.0 mm
00:49 20.4 °C 16.5 °C 1016.3 hPa NNO 4.5 km/h 5.6 km/h 78% 0.0 mm
00:54 20.4 °C 16.4 °C 1016.3 hPa NNO 3.9 km/h 5.6 km/h 78% 0.0 mm
00:59 20.4 °C 16.4 °C 1016.3 hPa NNO 3.6 km/h 7.4 km/h 78% 0.0 mm
01:04 20.4 °C 16.4 °C 1016.3 hPa NNO 3.2 km/h 4.7 km/h 78% 0.0 mm
01:09 20.4 °C 16.5 °C 1016.3 hPa NNO 3.1 km/h 4.7 km/h 78.4% 0.0 mm
01:14 20.3 °C 16.6 °C 1016.2 hPa NNO 2.9 km/h 5 km/h 79% 0.0 mm
01:19 20.3 °C 16.6 °C 1016.2 hPa NNO 2.9 km/h 5.6 km/h 79% 0.0 mm
01:24 20.3 °C 16.6 °C 1016.2 hPa NNO 2.9 km/h 3.7 km/h 79% 0.0 mm
01:29 20.3 °C 16.6 °C 1016.2 hPa NNE 2.6 km/h 5.8 km/h 79% 0.0 mm
01:34 20.3 °C 16.6 °C 1016.2 hPa NE 2.3 km/h 5.6 km/h 79% 0.0 mm
01:39 20.3 °C 16.6 °C 1016.2 hPa NE 2.6 km/h 8.7 km/h 79.4% 0.0 mm
01:44 20.2 °C 16.6 °C 1015.7 hPa ENE 3.2 km/h 11.1 km/h 80% 0.0 mm
01:49 20.2 °C 16.7 °C 1015.7 hPa SSO 4.5 km/h 11.1 km/h 80.3% 0.0 mm
01:54 20.2 °C 16.9 °C 1016.0 hPa Oeste 6.4 km/h 7.4 km/h 81.1% 0.0 mm
01:59 20.2 °C 17 °C 1016.0 hPa Oeste 5.7 km/h 7.6 km/h 82% 0.0 mm
02:04 20.1 °C 16.9 °C 1016.0 hPa ONO 4.7 km/h 7.6 km/h 82% 0.0 mm
02:09 20 °C 16.9 °C 1016.0 hPa ONO 5.1 km/h 8.4 km/h 82.5% 0.0 mm
02:14 19.9 °C 16.9 °C 1015.9 hPa NNO 5.8 km/h 7.4 km/h 83% 0.0 mm
02:19 19.9 °C 17.1 °C 1015.9 hPa North 5.3 km/h 11.1 km/h 83.8% 0.0 mm
02:24 19.9 °C 17.1 °C 1015.9 hPa NE 4.7 km/h 11.1 km/h 84% 0.0 mm
02:29 19.9 °C 17.2 °C 1015.5 hPa NE 5.5 km/h 10 km/h 84.9% 0.0 mm
02:34 19.8 °C 17.2 °C 1015.5 hPa NNE 6.9 km/h 13 km/h 85% 0.0 mm
02:39 19.8 °C 17.2 °C 1015.5 hPa NNE 7.2 km/h 13 km/h 85.1% 0.0 mm
02:44 19.7 °C 17.3 °C 1015.4 hPa North 7.6 km/h 11.1 km/h 86% 0.0 mm
02:49 19.7 °C 17.4 °C 1015.4 hPa NO 6.8 km/h 7.6 km/h 86.4% 0.0 mm
02:54 19.7 °C 17.5 °C 1015.5 hPa NO 5.8 km/h 5.6 km/h 87% 0.0 mm
02:59 19.8 °C 17.6 °C 1015.5 hPa NNO 4.7 km/h 7.4 km/h 87% 0.0 mm
03:04 19.8 °C 17.6 °C 1015.5 hPa ONO 3.2 km/h 7.6 km/h 87% 0.0 mm
03:09 19.8 °C 17.6 °C 1016.0 hPa SO 3.8 km/h 9.3 km/h 87% 0.0 mm
03:14 19.8 °C 17.6 °C 1016.0 hPa SSO 4.7 km/h 8.4 km/h 87% 0.0 mm
03:19 19.9 °C 17.8 °C 1016.0 hPa SO 4.8 km/h 7.6 km/h 87.6% 0.0 mm
03:24 19.9 °C 17.7 °C 1016.0 hPa SSO 5 km/h 7.4 km/h 87.4% 0.0 mm
03:29 19.9 °C 17.7 °C 1015.9 hPa Sur 4.9 km/h 7.4 km/h 87% 0.0 mm
03:34 20 °C 17.8 °C 1015.9 hPa SE 4.7 km/h 8.7 km/h 87% 0.0 mm
03:39 20 °C 17.7 °C 1015.9 hPa SE 4.7 km/h 11.1 km/h 86.6% 0.0 mm
03:44 19.8 °C 17.3 °C 1015.9 hPa SSE 4.7 km/h 9.5 km/h 85.3% 0.0 mm
03:49 19.7 °C 16.9 °C 1015.9 hPa Sur 4.8 km/h 7.4 km/h 84.3% 0.0 mm
03:54 19.6 °C 16.8 °C 1015.9 hPa Sur 5 km/h 7.4 km/h 84% 0.0 mm
03:59 19.6 °C 16.7 °C 1015.8 hPa SSE 5 km/h 9.3 km/h 83.5% 0.0 mm
04:04 19.6 °C 16.5 °C 1015.8 hPa Sur 5 km/h 9.5 km/h 82.3% 0.0 mm
04:09 19.6 °C 16.4 °C 1015.8 hPa SSE 5.8 km/h 11.9 km/h 82% 0.0 mm
04:14 19.6 °C 16.3 °C 1015.7 hPa Sur 6.9 km/h 9.3 km/h 81.1% 0.0 mm
04:19 19.7 °C 16.3 °C 1015.7 hPa SSO 6.2 km/h 7.4 km/h 81% 0.0 mm
04:24 19.7 °C 16.5 °C 1015.7 hPa SSO 5 km/h 10 km/h 81.4% 0.0 mm
04:29 19.8 °C 16.6 °C 1015.7 hPa SSO 5.6 km/h 8.4 km/h 82% 0.0 mm
04:34 19.9 °C 16.7 °C 1015.7 hPa SSO 6.4 km/h 10 km/h 82% 0.0 mm
04:39 19.9 °C 16.7 °C 1015.7 hPa SO 6.2 km/h 9.3 km/h 82% 0.0 mm
04:44 20 °C 16.9 °C 1015.7 hPa Oeste 5.8 km/h 7.4 km/h 82% 0.0 mm
04:49 20.1 °C 16.9 °C 1015.7 hPa ONO 5 km/h 7.4 km/h 82% 0.0 mm
04:54 20 °C 16.9 °C 1015.8 hPa Oeste 3.9 km/h 5.8 km/h 82% 0.0 mm
04:59 20 °C 16.9 °C 1015.8 hPa ONO 3.9 km/h 5.8 km/h 82.4% 0.0 mm
05:04 20 °C 17 °C 1015.8 hPa ONO 3.9 km/h 5.8 km/h 83% 0.0 mm
05:09 19.9 °C 16.9 °C 1015.8 hPa ONO 3.6 km/h 5.8 km/h 83% 0.0 mm
05:14 19.9 °C 16.9 °C 1015.8 hPa ONO 3.2 km/h 5.6 km/h 83% 0.0 mm
05:19 19.9 °C 16.9 °C 1015.8 hPa ONO 2.8 km/h 3.7 km/h 83% 0.0 mm
05:24 19.9 °C 16.9 °C 1015.8 hPa ONO 2.3 km/h   83% 0.0 mm
05:29 19.8 °C 16.9 °C 1015.6 hPa ONO 1.4 km/h 2.3 km/h 83% 0.0 mm
05:34 19.8 °C 16.9 °C 1015.6 hPa Calm   6.9 km/h 83.6% 0.0 mm
05:39 19.8 °C 17 °C 1015.9 hPa SO 1.3 km/h 7.6 km/h 84% 0.0 mm
05:44 19.8 °C 17 °C 1015.9 hPa SO 3.2 km/h 7.4 km/h 84% 0.0 mm
05:49 19.8 °C 17 °C 1015.9 hPa SO 3.5 km/h 7.4 km/h 84% 0.0 mm
05:54 19.9 °C 17.2 °C 1016.1 hPa OSO 3.9 km/h 7.4 km/h 84.6% 0.0 mm
05:59 19.9 °C 17.3 °C 1016.1 hPa Oeste 3.9 km/h 5.8 km/h 85% 0.0 mm
06:04 19.9 °C 17.3 °C 1016.1 hPa Oeste 3.9 km/h 5.8 km/h 85% 0.0 mm
06:09 19.9 °C 17.3 °C 1016.1 hPa Oeste 3.6 km/h 7.4 km/h 85.3% 0.0 mm
06:14 19.9 °C 17.5 °C 1015.9 hPa Oeste 3.2 km/h 3.7 km/h 86% 0.0 mm
06:19 19.9 °C 17.5 °C 1015.9 hPa NO 2.8 km/h 7.4 km/h 86% 0.0 mm
06:24 19.8 °C 17.4 °C 1015.9 hPa North 2.3 km/h 6.4 km/h 86% 0.0 mm
06:29 19.7 °C 17.2 °C 1015.8 hPa ESE 3.2 km/h 7.4 km/h 85.3% 0.0 mm
06:34 19.7 °C 17.2 °C 1015.8 hPa ESE 4.7 km/h 10 km/h 86% 0.0 mm
06:39 19.5 °C 17.1 °C 1015.8 hPa SSE 5.4 km/h 9.5 km/h 86% 0.0 mm
06:44 19.4 °C 17.1 °C 1015.8 hPa Sur 6.4 km/h 9.3 km/h 86.7% 0.0 mm
06:49 19.3 °C 17.1 °C 1015.8 hPa Sur 6.4 km/h 10 km/h 87% 0.0 mm
06:54 19.3 °C 17.1 °C 1015.9 hPa Sur 6.4 km/h 11.1 km/h 87% 0.0 mm
06:59 19.3 °C 17.1 °C 1015.9 hPa Sur 6.7 km/h 10 km/h 87% 0.0 mm
07:04 19.3 °C 17.1 °C 1015.9 hPa SSO 6.9 km/h 9.5 km/h 87% 0.0 mm
07:09 19.4 °C 17.2 °C 1016.1 hPa SSO 6.9 km/h 11.1 km/h 87% 0.0 mm
07:14 19.4 °C 17.2 °C 1016.1 hPa SO 6.9 km/h 9.3 km/h 87% 0.0 mm
07:19 19.5 °C 17.2 °C 1016.1 hPa SO 6.2 km/h 7.4 km/h 87% 0.0 mm
07:24 19.5 °C 17.3 °C 1016.1 hPa SO 5 km/h 7.4 km/h 87% 0.0 mm
07:29 19.6 °C 17.4 °C 1016.0 hPa SSO 4.5 km/h 7.4 km/h 87% 0.0 mm
07:34 19.6 °C 17.4 °C 1016.0 hPa SSO 3.9 km/h 5.8 km/h 87% 0.0 mm
07:39 19.6 °C 17.4 °C 1016.1 hPa SSO 3.6 km/h 4.7 km/h 87% 0.0 mm
07:44 19.6 °C 17.4 °C 1016.1 hPa SSO 3.2 km/h 4.7 km/h 87% 0.0 mm
07:49 19.6 °C 17.4 °C 1016.1 hPa SSO 3.1 km/h 3.7 km/h 87% 0.0 mm
07:54 19.6 °C 17.4 °C 1016.1 hPa SSO 2.9 km/h 3.9 km/h 87% 0.0 mm
07:59 19.6 °C 17.4 °C 1015.9 hPa SSO 2.6 km/h 3.7 km/h 87% 0.0 mm
08:04 19.6 °C 17.4 °C 1015.9 hPa SSO 2.3 km/h 3.9 km/h 87% 0.0 mm
08:09 19.6 °C 17.4 °C 1015.9 hPa SSO 2.3 km/h 3.9 km/h 87% 0.0 mm
08:14 19.6 °C 17.4 °C 1015.8 hPa SSO 2.3 km/h 5.6 km/h 87% 0.0 mm
08:19 19.6 °C 17.4 °C 1015.8 hPa OSO 2.6 km/h 7.4 km/h 87% 0.0 mm
08:24 19.4 °C 17.3 °C 1015.9 hPa Oeste 3.2 km/h 7.4 km/h 87.7% 0.0 mm
08:29 19.4 °C 17.3 °C 1015.9 hPa Oeste 3.5 km/h 5.8 km/h 88% 0.0 mm
08:34 19.4 °C 17.5 °C 1015.9 hPa OSO 3.9 km/h 7.6 km/h 88.7% 0.0 mm
08:39 19.4 °C 17.5 °C 1016.0 hPa OSO 3.9 km/h 8.7 km/h 89% 0.0 mm
08:44 19.4 °C 17.6 °C 1016.0 hPa OSO 3.9 km/h 9.3 km/h 89% 0.0 mm
08:49 19.4 °C 17.5 °C 1016.0 hPa OSO 4.2 km/h 7.4 km/h 89% 0.0 mm
08:54 19.3 °C 17.4 °C 1016.1 hPa OSO 4.7 km/h 7.4 km/h 89% 0.0 mm
08:59 19.3 °C 17.5 °C 1016.1 hPa SO 4.1 km/h 7.4 km/h 89% 0.0 mm
09:04 19.3 °C 17.5 °C 1016.1 hPa Sur 3.2 km/h 6.9 km/h 89% 0.0 mm
09:09 19.4 °C 17.6 °C 1016.1 hPa SSE 3.8 km/h 8.7 km/h 89% 0.0 mm
09:14 19.4 °C 17.6 °C 1016.1 hPa SE 4.7 km/h 9.3 km/h 89% 0.0 mm
09:19 19.4 °C 17.6 °C 1016.1 hPa SE 4.8 km/h 7.4 km/h 89% 0.0 mm
09:24 19.4 °C 17.6 °C 1016.4 hPa Sur 5 km/h 8.4 km/h 89% 0.0 mm
09:29 19.4 °C 17.6 °C 1016.4 hPa SSO 5.3 km/h 8.4 km/h 89% 0.0 mm
09:34 19.4 °C 17.5 °C 1016.4 hPa SO 5.8 km/h 7.6 km/h 89% 0.0 mm
09:39 19.4 °C 17.6 °C 1016.4 hPa SO 5.3 km/h 7.4 km/h 89% 0.0 mm
09:44 19.4 °C 17.6 °C 1016.3 hPa OSO 4.7 km/h 4.7 km/h 89% 0.0 mm
09:49 19.5 °C 17.6 °C 1016.3 hPa OSO 3.9 km/h 6.4 km/h 89% 0.0 mm
09:54 19.6 °C 17.7 °C 1016.5 hPa OSO 2.9 km/h 7.4 km/h 89% 0.0 mm
09:59 19.6 °C 17.6 °C 1016.5 hPa Oeste 3.3 km/h 7.4 km/h 88.2% 0.0 mm
10:04 19.7 °C 17.7 °C 1016.5 hPa ONO 3.9 km/h 5.6 km/h 88% 0.0 mm
10:09 19.7 °C 17.7 °C 1016.6 hPa ONO 3.5 km/h 5.8 km/h 88% 0.0 mm
10:14 19.8 °C 17.7 °C 1016.6 hPa Oeste 2.9 km/h 6.4 km/h 87.7% 0.0 mm
10:19 19.8 °C 17.6 °C 1016.6 hPa Oeste 3.3 km/h 9.3 km/h 86.9% 0.0 mm
10:24 19.9 °C 17.5 °C 1016.6 hPa ONO 3.9 km/h 8.4 km/h 86% 0.0 mm
10:29 19.9 °C 17.5 °C 1016.6 hPa Oeste 4.2 km/h 8.4 km/h 86% 0.0 mm
10:34 20 °C 17.5 °C 1016.6 hPa OSO 4.7 km/h 11.1 km/h 85.2% 0.0 mm
10:39 20.1 °C 17.5 °C 1016.8 hPa Oeste 5.6 km/h 11.1 km/h 85% 0.0 mm
10:44 20.2 °C 17.6 °C 1016.8 hPa SO 6.9 km/h 11.9 km/h 85% 0.0 mm
10:49 20.2 °C 17.5 °C 1016.8 hPa OSO 6.1 km/h 11.1 km/h 84.2% 0.0 mm
10:54 20.3 °C 17.5 °C 1016.8 hPa OSO 5 km/h 9.5 km/h 84% 0.0 mm
10:59 20.4 °C 17.5 °C 1016.8 hPa OSO 5.4 km/h 11.1 km/h 83.4% 0.0 mm
11:04 20.6 °C 17.6 °C 1016.8 hPa SO 5.8 km/h 11.1 km/h 83% 0.0 mm
11:09 20.6 °C 17.6 °C 1017.0 hPa OSO 6.3 km/h 9.3 km/h 83% 0.0 mm
11:14 20.7 °C 17.6 °C 1017.0 hPa Oeste 6.9 km/h 7.6 km/h 82.4% 0.0 mm
11:19 20.9 °C 17.8 °C 1017.0 hPa ONO 5.7 km/h 5.8 km/h 82% 0.0 mm
11:24 21.2 °C 17.9 °C 1017.1 hPa ONO 3.9 km/h 7.6 km/h 81.3% 0.0 mm
11:29 21.3 °C 17.8 °C 1017.1 hPa NO 3.9 km/h 7.4 km/h 80.2% 0.0 mm
11:34 21.6 °C 17.9 °C 1017.1 hPa NNE 3.9 km/h 7.4 km/h 79.6% 0.0 mm
11:39 21.9 °C 18 °C 1017.1 hPa NNE 3.6 km/h 5.6 km/h 78.6% 0.0 mm
11:44 22.1 °C 18 °C 1016.9 hPa North 3.2 km/h 7.4 km/h 77.6% 0.0 mm
11:49 22.2 °C 17.9 °C 1016.9 hPa NNO 3.2 km/h 4.7 km/h 77% 0.0 mm
11:54 22.2 °C 18 °C 1017.0 hPa NNO 3.2 km/h 5.8 km/h 77% 0.0 mm
11:59 22.2 °C 17.8 °C 1017.0 hPa NNE 3.1 km/h 7.6 km/h 76.1% 0.0 mm
12:04 22.2 °C 17.8 °C 1017.0 hPa ESE 2.9 km/h 8.7 km/h 76% 0.0 mm
12:09 22.2 °C 17.8 °C 1017.1 hPa Este 3.7 km/h 9.3 km/h 76% 0.0 mm
12:14 22.2 °C 18 °C 1017.1 hPa North 5 km/h 3.7 km/h 76.9% 0.0 mm
12:19 22.3 °C 17.9 °C 1017.1 hPa ESE 4.1 km/h 7.4 km/h 76.1% 0.0 mm
12:24 22.3 °C 17.9 °C 1017.1 hPa Sur 2.9 km/h 7.4 km/h 76% 0.0 mm
12:29 22.3 °C 17.9 °C 1017.0 hPa Sur 3 km/h 3.9 km/h 76% 0.0 mm
12:34 22.4 °C 18 °C 1017.0 hPa Sur 3.2 km/h 3.7 km/h 76% 0.0 mm
12:39 22.6 °C 18 °C 1017.0 hPa Sur 2.8 km/h 5.6 km/h 75.2% 0.0 mm
12:44 22.7 °C 18 °C 1017.0 hPa Sur 2.3 km/h 6.9 km/h 75% 0.0 mm
12:49 22.7 °C 17.9 °C 1017.0 hPa SSO 2.5 km/h 7.4 km/h 74.1% 0.0 mm
12:54 22.8 °C 17.9 °C 1017.0 hPa ONO 2.9 km/h 5.6 km/h 74% 0.0 mm
12:59 22.8 °C 18 °C 1017.0 hPa Oeste 2.9 km/h 5.8 km/h 74% 0.0 mm
13:04 22.9 °C 18 °C 1017.0 hPa NO 2.9 km/h 7.4 km/h 73.9% 0.0 mm
13:09 23.1 °C 18 °C 1017.0 hPa North 3 km/h 5.8 km/h 73.2% 0.0 mm
13:14 23.1 °C 18 °C 1016.9 hPa ENE 3.2 km/h 8.4 km/h 73% 0.0 mm
13:19 23.2 °C 18 °C 1016.9 hPa ENE 3.5 km/h 7.4 km/h 73% 0.0 mm
13:24 23.2 °C 17.9 °C 1016.9 hPa NE 3.9 km/h 10 km/h 72.2% 0.0 mm
13:29 23.3 °C 17.9 °C 1016.7 hPa NE 4.2 km/h 8.4 km/h 72% 0.0 mm
13:34 23.3 °C 17.7 °C 1016.7 hPa NNE 4.7 km/h 7.4 km/h 71% 0.0 mm
13:39 23.5 °C 17.8 °C 1016.7 hPa North 4.3 km/h 8.4 km/h 70.4% 0.0 mm
13:44 23.7 °C 17.9 °C 1016.5 hPa NNE 3.9 km/h 7.4 km/h 70% 0.0 mm
13:49 23.8 °C 17.8 °C 1016.5 hPa NE 3.9 km/h 8.4 km/h 69.1% 0.0 mm
13:54 24 °C 17.6 °C 1016.5 hPa Este 3.9 km/h 5.8 km/h 67.5% 0.0 mm
13:59 24.2 °C 17.6 °C 1016.4 hPa NNE 3.6 km/h 9.5 km/h 66.6% 0.0 mm
14:04 24.2 °C 17.5 °C 1016.4 hPa NNE 3.2 km/h 9.3 km/h 66% 0.0 mm
14:09 24.3 °C 17.5 °C 1016.4 hPa ENE 3.8 km/h 5.6 km/h 65.8% 0.0 mm
14:14 24.5 °C 17.1 °C 1016.2 hPa NO 4.7 km/h 7.4 km/h 63.5% 0.0 mm
14:19 24.7 °C 17 °C 1016.2 hPa North 4.7 km/h 11.1 km/h 62.2% 0.0 mm
14:24 24.8 °C 16.7 °C 1016.2 hPa NNO 4.7 km/h 10 km/h 60.8% 0.0 mm
14:29 25 °C 16.5 °C 1016.0 hPa SE 4.8 km/h 11.9 km/h 59.2% 0.0 mm
14:34 25.2 °C 16.7 °C 1016.0 hPa Este 5 km/h 11.9 km/h 59.5% 0.0 mm
14:39 25.2 °C 16.6 °C 1016.0 hPa NO 4.9 km/h 9.3 km/h 59% 0.0 mm
14:44 25.3 °C 16.6 °C 1015.9 hPa NNE 4.7 km/h 14.8 km/h 58.6% 0.0 mm
14:49 25.3 °C 16.5 °C 1015.9 hPa Este 5.4 km/h 13.7 km/h 58% 0.0 mm
14:54 25.3 °C 16.2 °C 1015.9 hPa ESE 6.4 km/h 9.5 km/h 57.2% 0.0 mm
14:59 25.3 °C 16.1 °C 1015.8 hPa NE 5.6 km/h 11.1 km/h 56.7% 0.0 mm
15:04 25.4 °C 15.9 °C 1015.8 hPa Este 4.7 km/h 10 km/h 55.7% 0.0 mm
15:09 25.6 °C 15.8 °C 1015.8 hPa NNE 5.4 km/h 11.9 km/h 54.8% 0.0 mm
15:14 25.7 °C 15.6 °C 1015.7 hPa NE 6.4 km/h 11.9 km/h 53.6% 0.0 mm
15:19 25.7 °C 15.3 °C 1015.7 hPa NE 6.6 km/h 11.1 km/h 52.7% 0.0 mm
15:24 25.8 °C 15.6 °C 1015.7 hPa Este 6.9 km/h 13.7 km/h 53.4% 0.0 mm
15:29 25.8 °C 15.6 °C 1015.6 hPa NE 6.7 km/h 14 km/h 53.5% 0.0 mm
15:34 25.8 °C 15.7 °C 1015.6 hPa NE 6.4 km/h 18.5 km/h 53.6% 0.0 mm
15:39 25.9 °C 15.7 °C 1015.6 hPa ESE 6.9 km/h 13 km/h 53.3% 0.0 mm
15:44 25.9 °C 15.6 °C 1015.6 hPa Sur 7.6 km/h 13.7 km/h 53% 0.0 mm
15:49 26 °C 15.6 °C 1015.6 hPa ENE 6.5 km/h 15.6 km/h 52.7% 0.0 mm
15:54 25.9 °C 15.1 °C 1015.6 hPa SE 5 km/h 14.8 km/h 51.3% 0.0 mm
15:59 25.9 °C 15.2 °C 1015.4 hPa ESE 6.5 km/h 14.8 km/h 51.8% 0.0 mm
16:04 25.9 °C 15.1 °C 1015.4 hPa ESE 8.4 km/h 13 km/h 51.5% 0.0 mm
16:09 25.9 °C 14.8 °C 1015.4 hPa SE 7.3 km/h 7.6 km/h 50.5% 0.0 mm
16:14 25.9 °C 14.7 °C 1015.4 hPa ESE 5.8 km/h 7.4 km/h 50% 0.0 mm
16:19 26.2 °C 15.1 °C 1015.4 hPa Este 4.7 km/h 5.8 km/h 50.7% 0.0 mm
16:24 26.3 °C 15.3 °C 1015.4 hPa SSO 3.2 km/h 20.4 km/h 50.9% 0.0 mm
16:29 26.4 °C 15.3 °C 1015.3 hPa SSE 5.6 km/h 18.5 km/h 50.6% 0.0 mm
16:34 26.3 °C 15.3 °C 1015.3 hPa Este 8.7 km/h 13.7 km/h 51% 0.0 mm
16:39 26.4 °C 15.4 °C 1015.4 hPa SE 8.2 km/h 9.5 km/h 50.8% 0.0 mm
16:44 26.5 °C 15.2 °C 1015.4 hPa Este 7.6 km/h 9.3 km/h 50% 0.0 mm
16:49 26.5 °C 15.2 °C 1015.4 hPa Este 6.8 km/h 8.4 km/h 50% 0.0 mm
16:54 26.7 °C 15.6 °C 1015.5 hPa ENE 5.8 km/h 10 km/h 50.8% 0.0 mm
16:59 26.6 °C 15.6 °C 1015.5 hPa NNE 5.4 km/h 10 km/h 51% 0.0 mm
17:04 26.5 °C 15.6 °C 1015.5 hPa NE 5 km/h 19 km/h 51% 0.0 mm
17:09 26.4 °C 15 °C 1015.5 hPa SE 6.9 km/h 13 km/h 49.3% 0.0 mm
17:14 26.4 °C 15 °C 1015.4 hPa ESE 9.5 km/h 9.3 km/h 49.7% 0.0 mm
17:19 26.4 °C 15.1 °C 1015.4 hPa SE 7.6 km/h 10 km/h 49.9% 0.0 mm
17:24 26.3 °C 15.1 °C 1015.5 hPa ESE 5 km/h 18.5 km/h 50.2% 0.0 mm
17:29 26.2 °C 15.2 °C 1015.5 hPa ESE 7 km/h 20.9 km/h 51% 0.0 mm
17:34 26 °C 14.9 °C 1015.5 hPa ESE 10 km/h 18 km/h 50.5% 0.0 mm
17:39 26 °C 14.8 °C 1015.6 hPa ESE 10.4 km/h 18.5 km/h 50% 0.0 mm
17:44 25.9 °C 14.7 °C 1015.6 hPa Este 11.1 km/h 16.7 km/h 50% 0.0 mm
17:49 25.9 °C 14.7 °C 1015.6 hPa Este 10.1 km/h 16.7 km/h 50% 0.0 mm
17:54 25.8 °C 14.5 °C 1015.8 hPa ESE 8.7 km/h 20.4 km/h 49.9% 0.0 mm
17:59 25.6 °C 14.6 °C 1015.8 hPa ESE 10.2 km/h 20.9 km/h 50.8% 0.0 mm
18:04 25.4 °C 14.8 °C 1015.8 hPa ESE 12.2 km/h 16.7 km/h 51.8% 0.0 mm
18:09 25.3 °C 15 °C 1015.8 hPa ESE 11.4 km/h 19.8 km/h 52.7% 0.0 mm
18:14 25.2 °C 15.2 °C 1015.8 hPa ESE 10.3 km/h 20.4 km/h 53.9% 0.0 mm
18:19 25.2 °C 15.4 °C 1015.8 hPa Este 11.1 km/h 14.8 km/h 54.7% 0.0 mm
18:24 25.1 °C 15.4 °C 1016.0 hPa ENE 12.2 km/h 13.7 km/h 55.1% 0.0 mm
18:29 24.9 °C 15.5 °C 1016.0 hPa ENE 10.2 km/h 13 km/h 56% 0.0 mm
18:34 24.8 °C 15.4 °C 1016.0 hPa Este 7.6 km/h 16.7 km/h 56% 0.0 mm
18:39 24.6 °C 15.3 °C 1016.3 hPa Este 7.6 km/h 16.7 km/h 56% 0.0 mm
18:44 24.4 °C 15.1 °C 1016.3 hPa ENE 7.6 km/h 17.2 km/h 55.9% 0.0 mm
18:49 24.3 °C 14.9 °C 1016.3 hPa ENE 8 km/h 17.2 km/h 55.8% 0.0 mm
18:54 24.1 °C 15.1 °C 1016.5 hPa ENE 8.7 km/h 13.7 km/h 57.1% 0.0 mm
18:59 23.8 °C 15.4 °C 1016.5 hPa NE 8.5 km/h 16.7 km/h 59.2% 0.0 mm
19:04 23.6 °C 15.6 °C 1016.5 hPa ENE 8.4 km/h 14.8 km/h 60.7% 0.0 mm
19:09 23.4 °C 15.7 °C 1016.7 hPa ENE 8 km/h 13.7 km/h 61.9% 0.0 mm
19:14 23.2 °C 15.6 °C 1016.7 hPa ENE 7.6 km/h 14.8 km/h 62.3% 0.0 mm
19:19 23.1 °C 15.6 °C 1016.7 hPa NE 7.6 km/h 14.8 km/h 63% 0.0 mm
19:24 22.9 °C 15.5 °C 1016.9 hPa NE 7.6 km/h 14.8 km/h 62.9% 0.0 mm
19:29 22.7 °C 15.3 °C 1016.9 hPa NE 8.6 km/h 19 km/h 63% 0.0 mm
19:34 22.6 °C 15.2 °C 1016.9 hPa NE 10 km/h 16.1 km/h 63% 0.0 mm
19:39 22.4 °C 15.1 °C 1017.2 hPa NE 10 km/h 16.7 km/h 63.5% 0.0 mm
19:44 22.3 °C 15.1 °C 1017.2 hPa NE 10 km/h 14.8 km/h 64% 0.0 mm
19:49 22.2 °C 15.1 °C 1017.2 hPa NE 9.4 km/h 14 km/h 64.3% 0.0 mm
19:54 22 °C 15.2 °C 1017.4 hPa NE 8.7 km/h 19 km/h 65.1% 0.0 mm
19:59 21.9 °C 15.4 °C 1017.4 hPa NE 9.3 km/h 20.4 km/h 66.7% 0.0 mm
20:04 21.7 °C 15.7 °C 1017.4 hPa NE 10 km/h 19 km/h 68.5% 0.0 mm
20:09 21.7 °C 16 °C 1017.6 hPa NE 10.8 km/h 20.4 km/h 70.1% 0.0 mm
20:14 21.6 °C 16.2 °C 1017.6 hPa NE 11.9 km/h 20.4 km/h 71.3% 0.0 mm
20:19 21.4 °C 16.2 °C 1017.6 hPa NE 11.9 km/h 16.4 km/h 72% 0.0 mm
20:24 21.4 °C 16.3 °C 1017.9 hPa NE 11.9 km/h 20.4 km/h 72.9% 0.0 mm
20:29 21.3 °C 16.3 °C 1017.9 hPa NE 11.2 km/h 17.2 km/h 73% 0.0 mm
20:34 21.3 °C 16.4 °C 1017.9 hPa NE 10.3 km/h 20.4 km/h 73.7% 0.0 mm
20:39 21.2 °C 16.4 °C 1018.0 hPa NE 10.3 km/h 14.8 km/h 74% 0.0 mm
20:44 21.1 °C 16.4 °C 1018.0 hPa NE 10.3 km/h 11.1 km/h 74.7% 0.0 mm
20:49 21.1 °C 16.5 °C 1018.0 hPa ENE 9.2 km/h 11.9 km/h 75% 0.0 mm
20:54 21 °C 16.4 °C 1018.2 hPa ENE 7.6 km/h 11.9 km/h 75% 0.0 mm
20:59 21 °C 16.3 °C 1018.2 hPa ENE 7.3 km/h 10 km/h 75% 0.0 mm
21:04 20.9 °C 16.3 °C 1018.2 hPa ENE 6.9 km/h 9.5 km/h 75% 0.0 mm
21:09 20.9 °C 16.3 °C 1018.3 hPa NE 6.5 km/h 10 km/h 75% 0.0 mm
21:14 20.9 °C 16.4 °C 1018.3 hPa NE 5.8 km/h 11.1 km/h 75.5% 0.0 mm
21:19 20.8 °C 16.4 °C 1018.3 hPa NE 6.1 km/h 9.5 km/h 76% 0.0 mm
21:24 20.7 °C 16.4 °C 1018.5 hPa NE 6.4 km/h 11.1 km/h 76.4% 0.0 mm
21:29 20.7 °C 16.5 °C 1018.5 hPa NNE 6.2 km/h 10 km/h 77% 0.0 mm
21:34 20.5 °C 16.5 °C 1018.5 hPa NE 5.8 km/h 11.1 km/h 77.5% 0.0 mm
21:39 20.4 °C 16.4 °C 1018.6 hPa NE 6.1 km/h 9.3 km/h 78% 0.0 mm
21:44 20.3 °C 16.5 °C 1018.6 hPa NE 6.4 km/h 11.9 km/h 78.5% 0.0 mm
21:49 20.2 °C 16.5 °C 1018.6 hPa NE 6.6 km/h 11.1 km/h 79% 0.0 mm
21:54 20.2 °C 16.5 °C 1018.8 hPa NE 6.9 km/h 9.5 km/h 79.3% 0.0 mm
21:59 20.1 °C 16.6 °C 1018.8 hPa NE 6.9 km/h 11.1 km/h 80% 0.0 mm
22:04 20 °C 16.5 °C 1018.8 hPa NE 6.9 km/h 9.5 km/h 80% 0.0 mm
22:09 20 °C 16.4 °C 1019.0 hPa NE 6.4 km/h 9.5 km/h 80% 0.0 mm
22:14 19.9 °C 16.6 °C 1019.0 hPa NE 5.8 km/h 8.4 km/h 80.9% 0.0 mm
22:19 19.9 °C 16.6 °C 1019.0 hPa NE 5.5 km/h 7.6 km/h 81% 0.0 mm
22:24 19.9 °C 16.6 °C 1019.2 hPa ENE 5 km/h 9.3 km/h 81% 0.0 mm
22:29 19.8 °C 16.5 °C 1019.2 hPa ENE 4.5 km/h 3.9 km/h 81% 0.0 mm
22:34 19.8 °C 16.4 °C 1019.2 hPa NE 3.9 km/h 3.9 km/h 81% 0.0 mm
22:39 19.8 °C 16.6 °C 1019.2 hPa NE 3.2 km/h 5.8 km/h 82% 0.0 mm
22:44 19.8 °C 16.6 °C 1019.1 hPa NE 2.3 km/h 7.4 km/h 82% 0.0 mm
22:49 19.9 °C 16.7 °C 1019.1 hPa NNE 3.2 km/h 7.4 km/h 82% 0.0 mm
22:54 19.8 °C 16.5 °C 1019.6 hPa NNE 4.7 km/h 9.5 km/h 81.2% 0.0 mm
22:59 19.8 °C 16.6 °C 1019.6 hPa NNE 5.2 km/h 9.3 km/h 82% 0.0 mm
23:04 19.7 °C 16.6 °C 1019.6 hPa NE 5.8 km/h 8.4 km/h 82% 0.0 mm
23:09 19.7 °C 16.6 °C 1019.6 hPa NE 5.8 km/h 8.4 km/h 82.4% 0.0 mm
23:14 19.6 °C 16.6 °C 1019.5 hPa NNE 5.8 km/h 9.5 km/h 83% 0.0 mm
23:19 19.5 °C 16.6 °C 1019.5 hPa NNE 5.8 km/h 9.3 km/h 83% 0.0 mm
23:24 19.4 °C 16.4 °C 1019.7 hPa NNE 5.8 km/h 7.6 km/h 83% 0.0 mm
23:29 19.3 °C 16.5 °C 1019.7 hPa NNE 5.3 km/h 7.4 km/h 83.7% 0.0 mm
23:34 19.3 °C 16.5 °C 1019.7 hPa NNE 4.7 km/h 7.4 km/h 84% 0.0 mm
23:39 19.2 °C 16.4 °C 1019.7 hPa NNE 4.7 km/h 9.5 km/h 84% 0.0 mm
23:44 19.1 °C 16.5 °C 1019.7 hPa NNE 4.7 km/h 10 km/h 84.9% 0.0 mm
23:49 19 °C 16.4 °C 1019.7 hPa NNE 5.1 km/h 8.4 km/h 85% 0.0 mm
23:54 18.9 °C 16.3 °C 1019.9 hPa NNE 5.8 km/h 9.3 km/h 85% 0.0 mm
23:59 18.8 °C 16.4 °C 1019.9 hPa NNE 6.1 km/h 11.1 km/h 85.9% 0.0 mm
Murcia-Puente Tocinos, Espa?a
Compliments of Weather Underground - 3 mb

La estación de MeteoMurcia.com, publica sus datos en los siguientes proyectos:

Weather Underground PWS IMURCIAP2 Meteoclimatic www.awekas.at

W3Counter
Web Analytics